Terminal Aerodrome Forecast
Issued by NWS Topeka, KS

Home | Current Version | Previous Version | Graphics & Text | Print | Product List | Glossary On
Versions: 1 2 3 4 5 6 7 8 9 10 11 12 13 14 15 16
000
FTUS43 KTOP 021120
TAFTOP
TAF
KTOP 021120Z 0212/0312 02005KT P6SM OVC015
     FM021700 03009KT P6SM VCTS FEW008 BKN020CB=

USA.gov is the U.S. government's official web portal to all federal, state and local government web resources and services.